Time;durP1;ratioP1;P1;durP2;ratioP2;P2;SDS_P1;SDS_P2;PMS_P1;PMS_P2;Temp;Humidity;BMP_temperature;BMP_pressure;BME280_temperature;BME280_humidity;BME280_pressure;Samples;Min_cycle;Max_cycle;Signal;HPM_P1;HPM_P2
2024/03/10 00:01:06;;;;;;;30.88;16.05;;;4.80;99.90;;;;;;5040606;28;20048;-92
2024/03/10 00:03:32;;;;;;;29.27;15.27;;;3.90;99.90;;;;;;5067785;28;20733;-93
2024/03/10 00:05:59;;;;;;;31.45;15.25;;;4.50;99.90;;;;;;5032950;28;20034;-92
2024/03/10 00:08:26;;;;;;;30.00;16.10;;;4.10;99.90;;;;;;5047629;28;20033;-92
2024/03/10 00:10:52;;;;;;;30.85;15.63;;;4.30;99.90;;;;;;5051025;28;20391;-93
2024/03/10 00:13:20;;;;;;;30.42;15.70;;;3.90;99.90;;;;;;5043911;28;20479;-93
2024/03/10 00:15:46;;;;;;;33.28;15.35;;;5.10;99.90;;;;;;5049918;28;20037;-92
2024/03/10 00:18:13;;;;;;;34.00;16.50;;;4.90;99.90;;;;;;5043739;28;20041;-92
2024/03/10 00:20:40;;;;;;;32.20;16.00;;;3.90;99.90;;;;;;5044314;28;20064;-91
2024/03/10 00:23:06;;;;;;;33.53;16.02;;;3.90;99.90;;;;;;5044522;28;20088;-92
2024/03/10 00:25:33;;;;;;;30.33;15.77;;;4.50;99.90;;;;;;5050689;28;20556;-92
2024/03/10 00:28:00;;;;;;;32.38;15.25;;;5.10;99.90;;;;;;5046894;28;20570;-93
2024/03/10 00:30:28;;;;;;;34.20;16.08;;;3.90;99.90;;;;;;5044923;28;20120;-93
2024/03/10 00:32:55;;;;;;;32.65;16.85;;;4.40;99.90;;;;;;5049369;28;20041;-92
2024/03/10 00:35:22;;;;;;;32.13;15.52;;;3.80;99.90;;;;;;5053342;28;20075;-93
2024/03/10 00:37:49;;;;;;;32.85;16.88;;;3.80;99.90;;;;;;5039989;28;20033;-92
2024/03/10 00:40:16;;;;;;;31.20;15.85;;;4.50;99.90;;;;;;5038452;28;20041;-92
2024/03/10 00:42:43;;;;;;;31.85;15.73;;;4.70;99.90;;;;;;5047524;28;20041;-93
2024/03/10 00:45:10;;;;;;;32.28;15.63;;;3.80;99.90;;;;;;5047343;28;20066;-93
2024/03/10 00:47:39;;;;;;;31.40;15.48;;;3.80;99.90;;;;;;5050740;28;20052;-91
2024/03/10 00:50:08;;;;;;;31.20;15.90;;;4.60;99.90;;;;;;5037155;28;20148;-92
2024/03/10 00:52:36;;;;;;;34.92;14.80;;;3.80;99.90;;;;;;5055025;28;20049;-93
2024/03/10 00:55:03;;;;;;;28.88;14.88;;;3.80;99.90;;;;;;5046613;28;20060;-93
2024/03/10 00:57:29;;;;;;;31.58;15.65;;;3.70;99.90;;;;;;5049205;28;20037;-93
2024/03/10 00:59:56;;;;;;;28.20;14.43;;;3.70;99.90;;;;;;5054436;28;20037;-93
2024/03/10 01:02:23;;;;;;;28.75;14.90;;;4.30;99.90;;;;;;5053995;28;20029;-92
2024/03/10 01:04:50;;;;;;;44.72;16.13;;;4.80;99.90;;;;;;5070546;28;20045;-92
2024/03/10 01:07:16;;;;;;;28.85;14.88;;;4.60;99.90;;;;;;5053584;28;20045;-92
2024/03/10 01:09:44;;;;;;;31.48;14.88;;;3.60;99.90;;;;;;5046080;28;20037;-91
2024/03/10 01:12:11;;;;;;;32.35;16.48;;;4.70;99.90;;;;;;5048652;28;20037;-93
2024/03/10 01:14:38;;;;;;;31.05;15.00;;;4.20;99.90;;;;;;5051615;28;20091;-93
2024/03/10 01:17:05;;;;;;;30.45;15.95;;;3.70;99.90;;;;;;5051860;28;20068;-92
2024/03/10 01:19:31;;;;;;;32.50;16.52;;;4.70;99.90;;;;;;5056681;28;20071;-93
2024/03/10 01:21:58;;;;;;;28.75;15.23;;;4.00;99.90;;;;;;5052223;28;20486;-93
2024/03/10 01:24:25;;;;;;;32.38;15.95;;;3.60;99.90;;;;;;5045630;28;20040;-93
2024/03/10 01:26:52;;;;;;;32.20;15.68;;;4.20;99.90;;;;;;5057425;28;20044;-93
2024/03/10 01:29:19;;;;;;;33.30;16.23;;;4.10;99.90;;;;;;5057404;28;20119;-93
2024/03/10 01:31:46;;;;;;;32.33;14.90;;;3.60;99.90;;;;;;5038932;28;20061;-93
2024/03/10 01:34:13;;;;;;;31.60;15.65;;;3.60;99.90;;;;;;5037709;28;20127;-94
2024/03/10 01:36:39;;;;;;;29.33;14.10;;;3.60;99.90;;;;;;5046545;28;20076;-93
2024/03/10 01:39:08;;;;;;;29.48;14.00;;;3.70;99.90;;;;;;5048442;28;20036;-92
2024/03/10 01:41:35;;;;;;;29.77;14.50;;;4.50;99.90;;;;;;5039959;28;20041;-93
2024/03/10 01:44:01;;;;;;;33.55;15.20;;;3.60;99.90;;;;;;5037749;28;20044;-94
2024/03/10 01:46:29;;;;;;;32.75;15.68;;;3.70;99.90;;;;;;5037806;28;20045;-94
2024/03/10 01:48:56;;;;;;;27.92;14.43;;;3.20;99.90;;;;;;5052488;28;20123;-94
2024/03/10 01:51:22;;;;;;;30.33;15.07;;;4.30;99.90;;;;;;5052728;28;20107;-92
2024/03/10 01:53:51;;;;;;;31.80;15.73;;;3.70;99.90;;;;;;5056761;28;20049;-93
2024/03/10 01:56:18;;;;;;;30.50;15.35;;;4.50;99.90;;;;;;5054318;28;20119;-93
2024/03/10 01:58:50;;;;;;;31.75;15.93;;;3.70;99.90;;;;;;5057391;28;20494;-93
2024/03/10 02:01:16;;;;;;;29.75;15.23;;;4.30;99.90;;;;;;5048492;28;20073;-91
2024/03/10 02:03:48;;;;;;;31.58;15.10;;;4.80;99.90;;;;;;5052575;28;20064;-94
2024/03/10 02:06:15;;;;;;;30.80;15.15;;;3.80;99.90;;;;;;5044370;28;20824;-92
2024/03/10 02:08:42;;;;;;;31.17;15.25;;;3.80;99.90;;;;;;5052185;28;20044;-93
2024/03/10 02:11:11;;;;;;;31.90;15.95;;;4.20;99.90;;;;;;5056950;28;20036;-92
2024/03/10 02:13:38;;;;;;;29.58;14.75;;;3.80;99.90;;;;;;5050596;28;20041;-92
2024/03/10 02:16:06;;;;;;;29.58;14.80;;;4.90;99.90;;;;;;5048318;28;20076;-93
2024/03/10 02:18:33;;;;;;;31.00;14.55;;;3.80;99.90;;;;;;5043433;28;21374;-93
2024/03/10 02:21:02;;;;;;;29.73;14.95;;;4.50;99.90;;;;;;5056988;28;20086;-92
2024/03/10 02:23:46;;;;;;;31.70;14.68;;;4.40;99.90;;;;;;5048770;28;20056;-92
2024/03/10 02:26:16;;;;;;;30.13;14.82;;;3.80;99.90;;;;;;5073172;28;20052;-91
2024/03/10 02:29:14;;;;;;;31.50;16.20;;;3.80;99.90;;;;;;5069349;28;20667;-94
2024/03/10 02:48:24;;;;;;;34.30;15.90;;;4.20;99.90;;;;;;5067986;28;20041;-93
2024/03/10 02:50:50;;;;;;;33.00;16.17;;;3.70;99.90;;;;;;5052647;28;20044;-94
2024/03/10 02:53:17;;;;;;;31.95;16.65;;;4.10;99.90;;;;;;5048115;28;20046;-95
2024/03/10 02:55:46;;;;;;;30.63;15.68;;;3.70;99.90;;;;;;5047801;28;20476;-93
2024/03/10 02:58:13;;;;;;;35.22;17.00;;;3.70;99.90;;;;;;5044510;28;20037;-93
2024/03/10 03:00:40;;;;;;;28.83;15.35;;;3.70;99.90;;;;;;5046507;28;20038;-93
2024/03/10 03:03:08;;;;;;;33.45;16.38;;;3.70;99.90;;;;;;5050997;28;20047;-94
2024/03/10 03:05:36;;;;;;;33.75;16.85;;;3.70;99.90;;;;;;5046455;28;20101;-93
2024/03/10 03:08:03;;;;;;;32.40;15.40;;;3.80;99.90;;;;;;5052464;28;20128;-93
2024/03/10 03:10:30;;;;;;;34.83;16.83;;;3.70;99.90;;;;;;5048411;28;20049;-93
2024/03/10 03:12:57;;;;;;;31.90;17.45;;;3.70;99.90;;;;;;5052270;28;20033;-93
2024/03/10 03:15:23;;;;;;;33.28;16.63;;;4.50;99.90;;;;;;5051766;28;20049;-93
2024/03/10 03:17:50;;;;;;;35.53;17.85;;;3.70;99.90;;;;;;5052175;28;20557;-93
2024/03/10 03:20:17;;;;;;;35.03;17.38;;;3.70;99.90;;;;;;5047613;28;20072;-93
2024/03/10 03:22:45;;;;;;;36.40;17.85;;;3.70;99.90;;;;;;5051951;28;20037;-94
2024/03/10 03:25:14;;;;;;;35.92;17.73;;;3.70;99.90;;;;;;5051866;28;20116;-93
2024/03/10 03:27:44;;;;;;;37.47;17.45;;;3.70;99.90;;;;;;5040349;28;20155;-93
2024/03/10 03:30:11;;;;;;;36.38;17.42;;;4.00;99.90;;;;;;5035639;28;20091;-93
2024/03/10 03:32:38;;;;;;;41.40;18.67;;;3.70;99.90;;;;;;5044449;28;20415;-92
2024/03/10 03:35:05;;;;;;;41.33;18.90;;;3.60;99.90;;;;;;5051600;28;20514;-93
2024/03/10 03:37:32;;;;;;;33.42;16.80;;;3.60;99.90;;;;;;5031613;28;20049;-91
2024/03/10 03:39:59;;;;;;;37.22;18.30;;;4.60;99.90;;;;;;5044887;28;20483;-93
2024/03/10 03:42:27;;;;;;;40.15;18.58;;;3.60;99.90;;;;;;5044560;28;20041;-93
2024/03/10 03:44:54;;;;;;;36.83;18.48;;;3.60;99.90;;;;;;5051573;28;20041;-91
2024/03/10 03:47:20;;;;;;;41.25;19.58;;;3.60;99.90;;;;;;5050358;28;20491;-91
2024/03/10 03:49:47;;;;;;;39.33;19.58;;;3.60;99.90;;;;;;5033804;28;20080;-92
2024/03/10 03:52:14;;;;;;;38.47;19.35;;;4.40;99.90;;;;;;5047836;28;20033;-93
2024/03/10 03:54:41;;;;;;;39.55;19.10;;;3.60;99.90;;;;;;5047017;28;20041;-93
2024/03/10 03:57:08;;;;;;;40.40;19.73;;;4.50;99.90;;;;;;5038345;28;20036;-93
2024/03/10 03:59:38;;;;;;;37.88;19.15;;;3.60;99.90;;;;;;5041271;28;20403;-92
2024/03/10 04:02:05;;;;;;;41.60;19.50;;;4.30;99.90;;;;;;5043660;28;20066;-92
2024/03/10 04:04:32;;;;;;;36.35;19.23;;;3.60;99.90;;;;;;5051123;28;20127;-93
2024/03/10 04:06:59;;;;;;;43.25;19.67;;;3.60;99.90;;;;;;5051340;28;20084;-91
2024/03/10 04:09:25;;;;;;;42.50;22.15;;;4.50;99.90;;;;;;5063486;28;20068;-92
2024/03/10 04:11:55;;;;;;;37.25;19.50;;;3.60;99.90;;;;;;5050564;28;20111;-93
2024/03/10 04:14:23;;;;;;;37.97;19.40;;;3.60;99.90;;;;;;5031575;28;20219;-92
2024/03/10 04:16:53;;;;;;;40.03;20.55;;;3.60;99.90;;;;;;5051326;28;20041;-92
2024/03/10 04:19:20;;;;;;;38.85;19.38;;;4.30;99.90;;;;;;5050171;28;20037;-93
2024/03/10 04:21:48;;;;;;;43.63;20.88;;;3.60;99.90;;;;;;5040784;28;20112;-92
2024/03/10 04:24:15;;;;;;;37.15;19.13;;;3.60;99.90;;;;;;5041557;28;20048;-94
2024/03/10 04:26:43;;;;;;;42.38;20.30;;;4.20;99.90;;;;;;5042526;28;20095;-93
2024/03/10 04:29:11;;;;;;;40.67;19.33;;;4.20;99.90;;;;;;5051081;28;20076;-93
2024/03/10 04:31:38;;;;;;;43.70;20.05;;;3.90;99.90;;;;;;5047431;28;20557;-93
2024/03/10 04:34:05;;;;;;;37.20;19.17;;;3.60;99.90;;;;;;5046608;28;20034;-93
2024/03/10 04:36:33;;;;;;;39.35;19.20;;;3.60;99.90;;;;;;5036288;28;20071;-93
2024/03/10 04:39:00;;;;;;;42.95;20.20;;;3.60;99.90;;;;;;5051131;28;20033;-92
2024/03/10 04:41:28;;;;;;;37.20;19.02;;;3.60;99.90;;;;;;5050995;28;20044;-93
2024/03/10 04:43:54;;;;;;;41.65;20.48;;;5.00;99.90;;;;;;5050756;28;20041;-91
2024/03/10 04:46:21;;;;;;;42.10;20.58;;;4.70;99.90;;;;;;5045734;28;20033;-94
2024/03/10 04:48:50;;;;;;;43.75;19.73;;;3.60;99.90;;;;;;5037630;28;20042;-92
2024/03/10 04:51:17;;;;;;;40.67;21.60;;;3.70;99.90;;;;;;5044472;28;20049;-92
2024/03/10 04:53:43;;;;;;;40.63;20.20;;;4.60;99.90;;;;;;5047359;28;20041;-94
2024/03/10 04:56:13;;;;;;;42.20;20.40;;;4.90;99.90;;;;;;5054456;28;20045;-93
2024/03/10 04:58:41;;;;;;;41.75;20.65;;;3.70;99.90;;;;;;5055039;28;20458;-94
2024/03/10 05:01:09;;;;;;;42.35;20.30;;;3.70;99.90;;;;;;5046979;28;20514;-93
2024/03/10 05:03:37;;;;;;;43.72;20.35;;;3.60;99.90;;;;;;5046534;28;20040;-93
2024/03/10 05:06:05;;;;;;;42.88;20.50;;;4.80;99.90;;;;;;5053416;28;21070;-92
2024/03/10 05:08:32;;;;;;;42.67;20.67;;;3.70;99.90;;;;;;5046804;28;20095;-92
2024/03/10 05:11:00;;;;;;;41.40;19.83;;;4.60;99.90;;;;;;5060341;28;20030;-92
2024/03/10 05:13:26;;;;;;;41.70;19.63;;;4.10;99.90;;;;;;5053038;28;20041;-92
2024/03/10 05:15:53;;;;;;;43.38;20.52;;;3.60;99.90;;;;;;5052655;28;20566;-92
2024/03/10 05:18:20;;;;;;;39.38;20.85;;;3.70;99.90;;;;;;5054601;28;20041;-92
2024/03/10 05:20:46;;;;;;;43.38;20.92;;;3.70;99.90;;;;;;5047227;28;20579;-92
2024/03/10 05:23:13;;;;;;;45.00;20.23;;;3.60;99.90;;;;;;5035239;28;20073;-94
2024/03/10 05:25:40;;;;;;;41.33;20.70;;;4.70;99.90;;;;;;5046476;28;20042;-94
2024/03/10 05:28:06;;;;;;;43.40;20.95;;;3.70;99.90;;;;;;5049858;28;20037;-93
2024/03/10 05:30:33;;;;;;;44.60;20.88;;;4.80;99.90;;;;;;5048410;28;20475;-92
2024/03/10 05:33:00;;;;;;;47.60;21.60;;;3.60;99.90;;;;;;5037319;28;20045;-93
2024/03/10 05:35:26;;;;;;;42.15;20.67;;;3.50;99.90;;;;;;5047939;28;20052;-94
2024/03/10 05:37:53;;;;;;;44.47;21.02;;;4.50;99.90;;;;;;5052905;28;20455;-92
2024/03/10 05:40:20;;;;;;;42.97;21.08;;;4.20;99.90;;;;;;5056978;28;20045;-94
2024/03/10 05:42:47;;;;;;;40.90;20.17;;;4.70;99.90;;;;;;5050121;28;20032;-92
2024/03/10 05:45:13;;;;;;;41.85;20.95;;;4.60;99.90;;;;;;5066233;28;20037;-92
2024/03/10 05:47:40;;;;;;;42.65;20.48;;;3.30;99.90;;;;;;5070444;28;20041;-92
2024/03/10 05:50:07;;;;;;;41.63;20.95;;;3.30;99.90;;;;;;5049723;28;20041;-93
2024/03/10 05:52:34;;;;;;;45.30;20.35;;;3.30;99.90;;;;;;5068214;28;20068;-93
2024/03/10 05:55:00;;;;;;;43.38;20.70;;;3.20;99.90;;;;;;5046378;28;20038;-95
2024/03/10 05:57:27;;;;;;;47.38;20.60;;;3.50;99.90;;;;;;5064111;28;20044;-95
2024/03/10 05:59:54;;;;;;;47.28;20.90;;;3.20;99.90;;;;;;5054424;28;20536;-94
2024/03/10 06:02:20;;;;;;;43.85;20.67;;;3.30;99.90;;;;;;5050005;28;20044;-94
2024/03/10 06:04:47;;;;;;;40.88;20.45;;;3.30;99.90;;;;;;5036420;28;20490;-92
2024/03/10 06:07:14;;;;;;;44.63;21.02;;;4.20;99.90;;;;;;5051897;28;20029;-92
2024/03/10 06:09:40;;;;;;;45.70;20.60;;;3.20;99.90;;;;;;5052417;28;20044;-93
2024/03/10 06:12:08;;;;;;;45.08;21.10;;;3.10;99.90;;;;;;5051061;28;20041;-93
2024/03/10 06:14:34;;;;;;;45.45;20.35;;;3.10;99.90;;;;;;5047312;28;20076;-92
2024/03/10 06:17:01;;;;;;;50.33;21.88;;;3.20;99.90;;;;;;5040385;28;20766;-93
2024/03/10 06:27:43;;;;;;;42.67;20.50;;;3.50;99.90;;;;;;5061639;28;20053;-92
2024/03/10 06:30:14;;;;;;;43.72;20.45;;;3.30;99.90;;;;;;5052842;28;20568;-93
2024/03/10 06:32:41;;;;;;;42.05;20.67;;;3.20;99.90;;;;;;5068046;28;20045;-93
2024/03/10 06:35:08;;;;;;;43.95;21.15;;;4.30;99.90;;;;;;5041704;28;20048;-93
2024/03/10 06:37:35;;;;;;;50.55;21.58;;;4.10;99.90;;;;;;5056404;28;20486;-93
2024/03/10 06:40:03;;;;;;;46.88;21.05;;;4.10;99.90;;;;;;5051349;28;20037;-93
2024/03/10 06:42:30;;;;;;;44.58;21.33;;;3.30;99.90;;;;;;5054178;28;20049;-93
2024/03/10 06:44:58;;;;;;;41.67;20.23;;;4.50;99.90;;;;;;5042176;28;20036;-93
2024/03/10 06:47:26;;;;;;;47.88;22.02;;;4.50;99.90;;;;;;5048549;28;20041;-94
2024/03/10 06:49:53;;;;;;;44.38;21.17;;;4.20;99.90;;;;;;5051698;28;20037;-94
2024/03/10 06:52:19;;;;;;;41.30;21.00;;;3.50;99.90;;;;;;5056116;28;20051;-94
2024/03/10 06:54:46;;;;;;;45.00;22.35;;;4.40;99.90;;;;;;5054954;28;20044;-92
2024/03/10 06:57:12;;;;;;;39.58;20.52;;;3.40;99.90;;;;;;5052561;28;20108;-93
2024/03/10 06:59:41;;;;;;;46.95;22.13;;;4.50;99.90;;;;;;5049909;28;20429;-94
2024/03/10 07:02:11;;;;;;;47.15;21.35;;;3.50;99.90;;;;;;5047671;28;20041;-93
2024/03/10 07:04:40;;;;;;;43.10;21.25;;;3.50;99.90;;;;;;5039320;28;20546;-93
2024/03/10 07:07:08;;;;;;;48.33;21.95;;;3.50;99.90;;;;;;5052917;28;20091;-92
2024/03/10 07:09:35;;;;;;;45.72;22.25;;;4.60;99.90;;;;;;5047822;28;20038;-92
2024/03/10 07:12:06;;;;;;;42.17;20.95;;;4.10;99.90;;;;;;5053862;28;20520;-92
2024/03/10 07:14:33;;;;;;;40.53;19.98;;;3.60;99.90;;;;;;5054271;28;20252;-93
2024/03/10 07:17:01;;;;;;;43.38;21.27;;;4.20;99.90;;;;;;5041317;28;20441;-94
2024/03/10 07:19:28;;;;;;;49.35;22.52;;;4.70;99.90;;;;;;5055565;28;20033;-93
2024/03/10 07:21:54;;;;;;;42.15;20.65;;;3.70;99.90;;;;;;5051983;28;20056;-94
2024/03/10 07:24:21;;;;;;;45.65;20.70;;;4.40;99.90;;;;;;5048497;28;20045;-92
2024/03/10 07:26:48;;;;;;;44.70;20.73;;;4.90;99.90;;;;;;5057628;28;20091;-93
2024/03/10 07:29:15;;;;;;;44.90;21.42;;;4.50;99.90;;;;;;5041322;28;20526;-94
2024/03/10 07:31:42;;;;;;;44.70;21.60;;;4.20;99.90;;;;;;5052263;28;20063;-94
2024/03/10 07:34:08;;;;;;;44.42;20.80;;;4.90;99.90;;;;;;5054986;28;20052;-93
2024/03/10 07:36:35;;;;;;;43.75;21.40;;;3.90;99.90;;;;;;5051364;28;20042;-94
2024/03/10 07:39:06;;;;;;;42.60;21.27;;;4.90;99.90;;;;;;5043109;28;20112;-88
2024/03/10 07:41:32;;;;;;;45.33;22.30;;;4.90;99.90;;;;;;5044242;28;20478;-94
2024/03/10 07:43:59;;;;;;;45.20;20.67;;;3.90;99.90;;;;;;5043760;28;20043;-94
2024/03/10 07:46:26;;;;;;;42.38;20.05;;;5.00;99.90;;;;;;5053622;28;20096;-94
2024/03/10 07:48:54;;;;;;;41.22;20.48;;;5.10;99.90;;;;;;5051583;28;20040;-92
2024/03/10 07:51:21;;;;;;;45.20;20.92;;;5.00;99.90;;;;;;5044994;28;20045;-94
2024/03/10 07:53:48;;;;;;;45.75;22.15;;;5.10;99.90;;;;;;5049581;28;20502;-91
2024/03/10 07:56:14;;;;;;;48.90;22.98;;;4.10;99.90;;;;;;5043719;28;20037;-94
2024/03/10 07:58:43;;;;;;;43.78;22.00;;;4.20;99.90;;;;;;5036723;28;20040;-94
2024/03/10 08:01:10;;;;;;;50.67;21.55;;;4.20;99.90;;;;;;5042056;28;20078;-94
2024/03/10 08:03:37;;;;;;;44.25;21.05;;;4.30;99.90;;;;;;5048462;28;20037;-94
2024/03/10 08:06:04;;;;;;;42.83;21.00;;;4.50;99.90;;;;;;5053852;28;20186;-95
2024/03/10 08:08:34;;;;;;;47.17;22.10;;;4.30;99.90;;;;;;5053678;28;20047;-93
2024/03/10 08:11:00;;;;;;;44.65;22.20;;;4.40;99.90;;;;;;5052515;28;20141;-92
2024/03/10 08:13:27;;;;;;;42.65;21.58;;;5.30;99.90;;;;;;5053127;28;20033;-93
2024/03/10 08:15:53;;;;;;;45.47;21.35;;;4.60;99.90;;;;;;5042629;28;20095;-93
2024/03/10 08:18:20;;;;;;;44.25;21.08;;;5.80;99.90;;;;;;5039488;28;20120;-95
2024/03/10 08:20:47;;;;;;;47.33;22.25;;;4.60;99.90;;;;;;5042868;28;20029;-95
2024/03/10 08:23:14;;;;;;;45.05;21.38;;;4.60;99.90;;;;;;5047576;28;20457;-94
2024/03/10 08:25:42;;;;;;;42.63;21.58;;;5.90;99.90;;;;;;5047765;28;20481;-93
2024/03/10 08:28:09;;;;;;;43.72;21.80;;;4.70;99.90;;;;;;5037324;28;20140;-92
2024/03/10 08:30:35;;;;;;;42.30;20.70;;;5.90;99.90;;;;;;5053311;28;20140;-93
2024/03/10 08:33:04;;;;;;;42.97;20.52;;;5.30;99.90;;;;;;5041259;28;20199;-87
2024/03/10 08:35:31;;;;;;;41.97;20.45;;;4.90;99.90;;;;;;5051871;28;20053;-93
2024/03/10 08:37:59;;;;;;;44.95;21.50;;;5.10;99.90;;;;;;5045100;28;20037;-93
2024/03/10 08:40:26;;;;;;;46.25;22.27;;;5.90;99.90;;;;;;5044451;28;20041;-94
2024/03/10 08:42:53;;;;;;;45.55;22.35;;;5.10;99.90;;;;;;5043490;28;20722;-94
2024/03/10 08:45:19;;;;;;;43.47;21.05;;;5.20;99.90;;;;;;5048081;28;20102;-94
2024/03/10 08:47:47;;;;;;;45.22;22.13;;;5.20;99.90;;;;;;5051887;28;20045;-93
2024/03/10 08:50:14;;;;;;;47.72;21.55;;;5.40;99.90;;;;;;5046214;28;20079;-93
2024/03/10 08:52:40;;;;;;;42.88;21.65;;;5.40;99.90;;;;;;5045957;28;20084;-93
2024/03/10 08:55:13;;;;;;;42.38;21.45;;;5.60;99.90;;;;;;5044378;28;20037;-93
2024/03/10 08:57:41;;;;;;;44.80;21.83;;;5.50;99.90;;;;;;5039097;28;20038;-93
2024/03/10 09:00:13;;;;;;;37.95;21.13;;;6.10;99.90;;;;;;5042575;28;20045;-93
2024/03/10 09:02:41;;;;;;;43.88;22.00;;;5.60;99.90;;;;;;5056205;28;20080;-90
2024/03/10 09:05:07;;;;;;;44.70;21.25;;;5.60;99.90;;;;;;5048748;28;20033;-91
2024/03/10 09:07:35;;;;;;;42.15;22.00;;;5.70;99.90;;;;;;5060912;28;20094;-90
2024/03/10 09:10:04;;;;;;;42.53;21.80;;;6.90;99.90;;;;;;5075738;28;20071;-92
2024/03/10 09:12:32;;;;;;;45.65;21.65;;;5.90;99.90;;;;;;5039963;28;20064;-91
2024/03/10 09:14:59;;;;;;;48.28;21.92;;;6.00;99.90;;;;;;5044962;28;20051;-91
2024/03/10 09:17:26;;;;;;;42.88;21.90;;;6.90;99.90;;;;;;5043013;28;20033;-92
2024/03/10 09:19:52;;;;;;;43.72;21.75;;;5.90;99.90;;;;;;5061918;28;20041;-91
2024/03/10 09:22:19;;;;;;;40.88;21.95;;;6.80;99.90;;;;;;5040866;28;20068;-92
2024/03/10 09:24:49;;;;;;;44.28;23.27;;;6.30;99.90;;;;;;5042233;28;20072;-90
2024/03/10 09:27:18;;;;;;;42.10;21.92;;;7.10;99.90;;;;;;5053970;28;20088;-91
2024/03/10 09:29:46;;;;;;;44.67;22.50;;;6.80;99.90;;;;;;5050384;28;20037;-92
2024/03/10 09:32:15;;;;;;;43.47;21.52;;;6.10;99.90;;;;;;5050531;28;20082;-91
2024/03/10 09:34:42;;;;;;;41.70;21.15;;;6.20;99.90;;;;;;5044246;28;20537;-93
2024/03/10 09:37:09;;;;;;;44.25;21.83;;;6.30;99.90;;;;;;5044065;28;20077;-92
2024/03/10 09:39:36;;;;;;;41.35;22.05;;;6.30;99.90;;;;;;5045324;28;20450;-92
2024/03/10 09:42:03;;;;;;;44.67;23.13;;;6.50;99.90;;;;;;5042058;28;20180;-92
2024/03/10 09:44:32;;;;;;;44.22;21.83;;;6.20;99.90;;;;;;5051794;28;20045;-92
2024/03/10 09:46:59;;;;;;;45.72;22.85;;;6.70;99.90;;;;;;5046242;28;20037;-92
2024/03/10 09:49:26;;;;;;;41.53;22.77;;;7.20;99.90;;;;;;5049505;28;20041;-92
2024/03/10 09:51:56;;;;;;;40.70;21.60;;;7.00;99.90;;;;;;5052024;28;20426;-91
2024/03/10 09:54:23;;;;;;;41.42;21.40;;;7.00;99.90;;;;;;5049660;28;20057;-91
2024/03/10 09:56:50;;;;;;;42.00;22.50;;;7.10;99.90;;;;;;5048282;28;20048;-92
2024/03/10 09:59:22;;;;;;;39.47;21.48;;;8.10;99.90;;;;;;5052761;28;20087;-92
2024/03/10 10:01:53;;;;;;;45.00;22.77;;;7.70;99.90;;;;;;5046180;28;20048;-92
2024/03/10 10:04:25;;;;;;;46.30;22.77;;;7.30;99.90;;;;;;5049703;28;20041;-90
2024/03/10 10:06:52;;;;;;;43.15;22.58;;;7.40;99.90;;;;;;5045417;28;20041;-90
2024/03/10 10:09:19;;;;;;;47.50;23.02;;;8.20;99.90;;;;;;5056492;28;20332;-90
2024/03/10 10:11:46;;;;;;;43.60;22.63;;;7.60;99.90;;;;;;5043381;28;20056;-94
2024/03/10 10:14:15;;;;;;;45.17;23.58;;;7.90;99.90;;;;;;5049055;28;20513;-92
2024/03/10 10:16:59;;;;;;;41.67;21.70;;;8.20;99.90;;;;;;5045730;28;20041;-92
2024/03/10 10:19:27;;;;;;;37.92;21.88;;;8.10;99.90;;;;;;5048105;28;20044;-93
2024/03/10 10:21:54;;;;;;;38.75;21.92;;;8.70;99.90;;;;;;5051925;28;20079;-94
2024/03/10 10:24:21;;;;;;;42.63;23.30;;;9.20;99.90;;;;;;5044411;28;20455;-95
2024/03/10 10:27:04;;;;;;;39.88;21.90;;;8.50;99.90;;;;;;5041812;28;20072;-93
2024/03/10 10:29:45;;;;;;;42.22;23.33;;;8.70;99.90;;;;;;5049259;28;20098;-95
2024/03/10 10:32:12;;;;;;;41.65;21.95;;;8.80;99.90;;;;;;5054295;28;20061;-95
2024/03/10 10:34:39;;;;;;;36.88;20.90;;;8.90;99.90;;;;;;5051926;28;20581;-94
2024/03/10 10:37:13;;;;;;;37.55;20.40;;;8.90;99.90;;;;;;5051387;28;20037;-88
2024/03/10 10:39:39;;;;;;;37.92;20.80;;;9.00;99.90;;;;;;5047430;28;20041;-94
2024/03/10 10:42:07;;;;;;;39.20;21.90;;;9.10;99.90;;;;;;5038275;28;20034;-93
2024/03/10 10:44:34;;;;;;;37.10;21.45;;;9.10;99.90;;;;;;5051323;28;20056;-90
2024/03/10 10:47:01;;;;;;;33.30;19.73;;;9.10;99.90;;;;;;5043312;28;20060;-91
2024/03/10 10:49:30;;;;;;;36.38;20.40;;;9.00;99.90;;;;;;5050880;28;20041;-91
2024/03/10 10:51:57;;;;;;;34.88;20.23;;;8.90;99.90;;;;;;5052429;28;20044;-92
2024/03/10 10:54:24;;;;;;;40.42;21.17;;;8.90;99.90;;;;;;5051292;28;20123;-92
2024/03/10 10:56:55;;;;;;;35.13;20.67;;;8.90;99.90;;;;;;5042689;28;20029;-91
2024/03/10 10:59:25;;;;;;;39.17;22.25;;;9.30;99.90;;;;;;5039736;28;20458;-90
2024/03/10 11:02:04;;;;;;;34.97;20.33;;;8.90;99.90;;;;;;5043453;28;20039;-90
2024/03/10 11:04:32;;;;;;;38.05;20.67;;;8.90;99.90;;;;;;5046737;28;20053;-90
2024/03/10 11:07:00;;;;;;;36.65;20.65;;;9.80;99.90;;;;;;5049128;28;20047;-91
2024/03/10 11:09:30;;;;;;;35.38;20.25;;;8.90;99.90;;;;;;5052140;28;20083;-91
2024/03/10 11:11:58;;;;;;;36.67;21.17;;;9.40;99.90;;;;;;5040266;28;20569;-91
2024/03/10 11:14:26;;;;;;;39.03;20.70;;;9.00;99.90;;;;;;5052621;28;20048;-91
2024/03/10 11:17:46;;;;;;;35.28;20.02;;;9.00;99.90;;;;;;5046983;28;20076;-96
2024/03/10 11:20:22;;;;;;;34.90;19.85;;;9.10;99.90;;;;;;5045081;28;20032;-95
2024/03/10 11:22:54;;;;;;;32.78;19.20;;;8.40;99.90;;;;;;5051103;28;20056;-96
2024/03/10 11:25:29;;;;;;;33.67;19.52;;;9.30;99.90;;;;;;5046430;28;20115;-96
2024/03/10 11:27:59;;;;;;;32.80;19.13;;;9.40;99.90;;;;;;5059578;28;20037;-89
2024/03/10 11:30:41;;;;;;;30.70;18.52;;;9.90;99.90;;;;;;5055493;28;20043;-96
2024/03/10 11:33:11;;;;;;;30.08;18.38;;;9.70;99.90;;;;;;5055672;28;20056;-96
2024/03/10 11:35:38;;;;;;;31.50;19.35;;;10.00;99.90;;;;;;5053611;28;20041;-96
2024/03/10 11:38:09;;;;;;;35.20;19.65;;;10.10;99.90;;;;;;5053835;28;20033;-95
2024/03/10 11:40:36;;;;;;;31.38;19.38;;;10.20;99.90;;;;;;5055567;28;20037;-96
2024/03/10 11:43:03;;;;;;;33.03;19.73;;;10.30;99.90;;;;;;5054362;28;20033;-96
2024/03/10 11:45:30;;;;;;;32.88;18.98;;;10.40;99.90;;;;;;5049193;28;20044;-96
2024/03/10 11:47:57;;;;;;;33.85;19.38;;;10.50;99.90;;;;;;5046974;28;20094;-96
2024/03/10 11:50:25;;;;;;;32.97;19.23;;;10.50;99.90;;;;;;5057612;28;20121;-94
2024/03/10 11:52:53;;;;;;;32.72;19.13;;;10.50;99.90;;;;;;5052013;28;20490;-95
2024/03/10 11:55:20;;;;;;;31.23;18.52;;;10.60;99.90;;;;;;5043088;28;20037;-95
2024/03/10 11:58:11;;;;;;;30.98;19.52;;;10.90;99.90;;;;;;5051427;28;20032;-95
2024/03/10 12:00:44;;;;;;;30.30;17.67;;;10.60;99.90;;;;;;5058129;28;20071;-95
2024/03/10 12:03:12;;;;;;;32.50;19.13;;;10.40;99.90;;;;;;5054684;28;20400;-95
2024/03/10 12:05:43;;;;;;;33.17;18.75;;;10.60;99.90;;;;;;5046142;28;20095;-95
2024/03/10 12:08:13;;;;;;;33.47;17.77;;;10.50;99.90;;;;;;5056308;28;20037;-95
2024/03/10 12:10:42;;;;;;;28.88;17.13;;;10.50;99.90;;;;;;5044498;28;20046;-96
2024/03/10 12:13:18;;;;;;;30.52;18.15;;;10.50;99.90;;;;;;5044251;28;20042;-95
2024/03/10 12:15:52;;;;;;;31.02;18.27;;;10.40;99.90;;;;;;5057154;28;20049;-95
2024/03/10 12:18:18;;;;;;;31.80;18.42;;;10.40;99.90;;;;;;5044859;28;20033;-96
2024/03/10 12:20:45;;;;;;;30.48;18.05;;;10.40;99.90;;;;;;5059150;28;20063;-95
2024/03/10 12:23:12;;;;;;;31.20;18.65;;;9.70;99.90;;;;;;5052703;28;20044;-95
2024/03/10 12:25:44;;;;;;;30.83;18.20;;;10.40;99.90;;;;;;5052724;28;20051;-95
2024/03/10 12:28:13;;;;;;;28.08;17.45;;;10.40;99.90;;;;;;5047730;28;20402;-95
2024/03/10 12:30:43;;;;;;;28.77;17.83;;;10.50;99.90;;;;;;5056314;28;20064;-96
2024/03/10 12:33:10;;;;;;;33.08;18.13;;;10.60;99.90;;;;;;5045755;28;20060;-96
2024/03/10 12:35:40;;;;;;;27.45;17.45;;;10.40;99.90;;;;;;5056670;28;20040;-96
2024/03/10 12:38:10;;;;;;;29.80;18.40;;;10.40;99.90;;;;;;5056254;28;20099;-96
2024/03/10 12:40:39;;;;;;;29.63;17.30;;;10.40;99.90;;;;;;5061663;28;20065;-96
2024/03/10 12:43:11;;;;;;;27.73;17.35;;;10.40;99.90;;;;;;5053303;28;20037;-95
2024/03/10 12:45:38;;;;;;;30.00;18.10;;;10.40;99.90;;;;;;5054360;28;20045;-95
2024/03/10 12:48:07;;;;;;;30.83;18.00;;;10.40;99.90;;;;;;5054149;28;20037;-95
2024/03/10 12:50:34;;;;;;;29.15;17.08;;;10.40;99.90;;;;;;5043263;28;20041;-93
2024/03/10 12:53:02;;;;;;;26.73;16.88;;;10.50;99.90;;;;;;5056053;28;20044;-96
2024/03/10 12:55:29;;;;;;;26.95;16.08;;;10.50;99.90;;;;;;5046054;28;20037;-95
2024/03/10 12:58:02;;;;;;;25.42;15.52;;;10.50;99.90;;;;;;5048556;28;20094;-95
2024/03/10 13:00:35;;;;;;;28.67;15.70;;;9.90;99.90;;;;;;5051939;28;20068;-96
2024/03/10 13:03:05;;;;;;;28.38;16.73;;;10.50;99.90;;;;;;5045851;28;20035;-96
2024/03/10 13:05:35;;;;;;;26.63;16.77;;;10.60;99.90;;;;;;5051818;28;20041;-96